sensor_id;sensor_type;location;lat;lon;timestamp;P1;durP1;ratioP1;P2;durP2;ratioP2
13493;SDS011;6819;50.886;4.332;2022-11-15T00:01:18;20.70;;;13.52;;
13493;SDS011;6819;50.886;4.332;2022-11-15T00:03:44;23.77;;;12.30;;
13493;SDS011;6819;50.886;4.332;2022-11-15T00:06:11;27.00;;;13.77;;
13493;SDS011;6819;50.886;4.332;2022-11-15T00:08:37;25.02;;;13.20;;
13493;SDS011;6819;50.886;4.332;2022-11-15T00:11:03;21.08;;;13.10;;
13493;SDS011;6819;50.886;4.332;2022-11-15T00:13:29;22.73;;;13.23;;
13493;SDS011;6819;50.886;4.332;2022-11-15T00:15:59;26.88;;;13.75;;
13493;SDS011;6819;50.886;4.332;2022-11-15T00:18:26;27.88;;;13.30;;
13493;SDS011;6819;50.886;4.332;2022-11-15T00:20:52;25.38;;;13.40;;
13493;SDS011;6819;50.886;4.332;2022-11-15T00:23:18;20.88;;;12.90;;
13493;SDS011;6819;50.886;4.332;2022-11-15T00:25:44;25.42;;;13.82;;
13493;SDS011;6819;50.886;4.332;2022-11-15T00:28:10;23.08;;;13.02;;
13493;SDS011;6819;50.886;4.332;2022-11-15T00:30:36;20.65;;;13.07;;
13493;SDS011;6819;50.886;4.332;2022-11-15T00:33:03;20.15;;;13.13;;
13493;SDS011;6819;50.886;4.332;2022-11-15T00:35:31;25.40;;;13.10;;
13493;SDS011;6819;50.886;4.332;2022-11-15T00:37:58;27.23;;;13.43;;
13493;SDS011;6819;50.886;4.332;2022-11-15T00:40:24;22.27;;;13.45;;
13493;SDS011;6819;50.886;4.332;2022-11-15T00:42:50;20.70;;;13.85;;
13493;SDS011;6819;50.886;4.332;2022-11-15T00:45:16;21.73;;;13.63;;
13493;SDS011;6819;50.886;4.332;2022-11-15T00:47:45;24.02;;;13.30;;
13493;SDS011;6819;50.886;4.332;2022-11-15T00:50:11;21.52;;;13.10;;
13493;SDS011;6819;50.886;4.332;2022-11-15T00:52:37;21.83;;;13.18;;
13493;SDS011;6819;50.886;4.332;2022-11-15T00:55:03;23.90;;;12.98;;
13493;SDS011;6819;50.886;4.332;2022-11-15T00:57:29;21.02;;;13.57;;
13493;SDS011;6819;50.886;4.332;2022-11-15T00:59:55;21.85;;;13.13;;
13493;SDS011;6819;50.886;4.332;2022-11-15T01:02:21;23.08;;;13.02;;
13493;SDS011;6819;50.886;4.332;2022-11-15T01:04:47;21.77;;;12.50;;
13493;SDS011;6819;50.886;4.332;2022-11-15T01:07:13;25.98;;;13.82;;
13493;SDS011;6819;50.886;4.332;2022-11-15T01:09:39;25.05;;;14.13;;
13493;SDS011;6819;50.886;4.332;2022-11-15T01:12:06;22.63;;;13.02;;
13493;SDS011;6819;50.886;4.332;2022-11-15T01:14:32;18.70;;;13.60;;
13493;SDS011;6819;50.886;4.332;2022-11-15T01:16:58;29.85;;;14.65;;
13493;SDS011;6819;50.886;4.332;2022-11-15T01:19:24;21.92;;;13.60;;
13493;SDS011;6819;50.886;4.332;2022-11-15T01:21:50;27.65;;;13.90;;
13493;SDS011;6819;50.886;4.332;2022-11-15T01:24:16;27.40;;;14.70;;
13493;SDS011;6819;50.886;4.332;2022-11-15T01:26:42;27.73;;;14.38;;
13493;SDS011;6819;50.886;4.332;2022-11-15T01:29:08;20.92;;;14.15;;
13493;SDS011;6819;50.886;4.332;2022-11-15T01:31:34;23.45;;;14.30;;
13493;SDS011;6819;50.886;4.332;2022-11-15T01:34:00;29.88;;;14.18;;
13493;SDS011;6819;50.886;4.332;2022-11-15T01:36:26;21.77;;;13.68;;
13493;SDS011;6819;50.886;4.332;2022-11-15T01:38:58;25.40;;;14.63;;
13493;SDS011;6819;50.886;4.332;2022-11-15T01:41:26;23.27;;;14.13;;
13493;SDS011;6819;50.886;4.332;2022-11-15T01:43:53;27.60;;;15.13;;
13493;SDS011;6819;50.886;4.332;2022-11-15T01:46:35;23.70;;;13.95;;
13493;SDS011;6819;50.886;4.332;2022-11-15T01:49:02;26.50;;;13.82;;
13493;SDS011;6819;50.886;4.332;2022-11-15T01:51:30;24.63;;;13.68;;
13493;SDS011;6819;50.886;4.332;2022-11-15T01:53:58;24.63;;;14.07;;
13493;SDS011;6819;50.886;4.332;2022-11-15T01:56:26;24.67;;;13.60;;
13493;SDS011;6819;50.886;4.332;2022-11-15T01:58:54;21.48;;;13.07;;
13493;SDS011;6819;50.886;4.332;2022-11-15T02:01:21;22.58;;;12.70;;
13493;SDS011;6819;50.886;4.332;2022-11-15T02:03:49;23.70;;;13.23;;
13493;SDS011;6819;50.886;4.332;2022-11-15T02:06:18;21.20;;;12.50;;
13493;SDS011;6819;50.886;4.332;2022-11-15T02:08:44;22.95;;;12.32;;
13493;SDS011;6819;50.886;4.332;2022-11-15T02:11:10;22.80;;;12.38;;
13493;SDS011;6819;50.886;4.332;2022-11-15T02:13:36;19.60;;;12.15;;
13493;SDS011;6819;50.886;4.332;2022-11-15T02:19:09;21.73;;;12.48;;
13493;SDS011;6819;50.886;4.332;2022-11-15T02:26:47;22.98;;;12.02;;
13493;SDS011;6819;50.886;4.332;2022-11-15T02:29:27;20.95;;;11.75;;
13493;SDS011;6819;50.886;4.332;2022-11-15T02:32:16;21.60;;;12.02;;
13493;SDS011;6819;50.886;4.332;2022-11-15T02:34:51;22.58;;;11.93;;
13493;SDS011;6819;50.886;4.332;2022-11-15T02:37:55;21.17;;;12.38;;
13493;SDS011;6819;50.886;4.332;2022-11-15T02:40:17;19.65;;;11.73;;
13493;SDS011;6819;50.886;4.332;2022-11-15T02:42:56;20.42;;;11.52;;
13493;SDS011;6819;50.886;4.332;2022-11-15T02:45:44;17.77;;;11.68;;
13493;SDS011;6819;50.886;4.332;2022-11-15T02:48:12;17.08;;;11.07;;
13493;SDS011;6819;50.886;4.332;2022-11-15T02:50:39;18.55;;;11.23;;
13493;SDS011;6819;50.886;4.332;2022-11-15T02:53:05;19.45;;;11.70;;
13493;SDS011;6819;50.886;4.332;2022-11-15T03:03:44;18.33;;;10.75;;
13493;SDS011;6819;50.886;4.332;2022-11-15T03:08:50;20.42;;;10.30;;
13493;SDS011;6819;50.886;4.332;2022-11-15T03:11:20;18.75;;;10.18;;
13493;SDS011;6819;50.886;4.332;2022-11-15T03:13:57;19.27;;;10.32;;
13493;SDS011;6819;50.886;4.332;2022-11-15T03:16:34;18.25;;;8.90;;
13493;SDS011;6819;50.886;4.332;2022-11-15T03:19:04;14.90;;;9.13;;
13493;SDS011;6819;50.886;4.332;2022-11-15T03:21:32;21.85;;;10.80;;
13493;SDS011;6819;50.886;4.332;2022-11-15T03:24:00;17.55;;;9.05;;
13493;SDS011;6819;50.886;4.332;2022-11-15T03:26:28;15.95;;;9.32;;
13493;SDS011;6819;50.886;4.332;2022-11-15T03:28:56;15.90;;;8.43;;
13493;SDS011;6819;50.886;4.332;2022-11-15T03:31:25;14.35;;;7.65;;
13493;SDS011;6819;50.886;4.332;2022-11-15T03:34:13;15.35;;;6.75;;
13493;SDS011;6819;50.886;4.332;2022-11-15T03:36:41;14.35;;;6.53;;
13493;SDS011;6819;50.886;4.332;2022-11-15T03:39:07;19.38;;;7.80;;
13493;SDS011;6819;50.886;4.332;2022-11-15T03:41:43;13.73;;;7.65;;
13493;SDS011;6819;50.886;4.332;2022-11-15T03:44:29;20.08;;;6.75;;
13493;SDS011;6819;50.886;4.332;2022-11-15T03:49:27;13.27;;;6.38;;
13493;SDS011;6819;50.886;4.332;2022-11-15T03:51:58;12.48;;;6.78;;
13493;SDS011;6819;50.886;4.332;2022-11-15T03:54:24;15.30;;;6.72;;
13493;SDS011;6819;50.886;4.332;2022-11-15T03:56:50;12.65;;;6.85;;
13493;SDS011;6819;50.886;4.332;2022-11-15T03:59:16;13.88;;;6.70;;
13493;SDS011;6819;50.886;4.332;2022-11-15T04:01:42;13.30;;;6.40;;
13493;SDS011;6819;50.886;4.332;2022-11-15T04:04:08;14.95;;;7.18;;
13493;SDS011;6819;50.886;4.332;2022-11-15T04:06:34;11.85;;;6.53;;
13493;SDS011;6819;50.886;4.332;2022-11-15T04:09:00;9.88;;;5.95;;
13493;SDS011;6819;50.886;4.332;2022-11-15T04:11:26;10.40;;;5.82;;
13493;SDS011;6819;50.886;4.332;2022-11-15T04:13:52;12.98;;;6.72;;
13493;SDS011;6819;50.886;4.332;2022-11-15T04:16:18;11.10;;;6.70;;
13493;SDS011;6819;50.886;4.332;2022-11-15T04:18:44;15.25;;;6.78;;
13493;SDS011;6819;50.886;4.332;2022-11-15T04:21:30;10.55;;;6.20;;
13493;SDS011;6819;50.886;4.332;2022-11-15T04:24:15;12.73;;;6.03;;
13493;SDS011;6819;50.886;4.332;2022-11-15T04:26:41;12.68;;;5.90;;
13493;SDS011;6819;50.886;4.332;2022-11-15T04:29:07;10.65;;;5.60;;
13493;SDS011;6819;50.886;4.332;2022-11-15T04:31:51;11.52;;;5.57;;
13493;SDS011;6819;50.886;4.332;2022-11-15T04:34:17;7.95;;;5.28;;
13493;SDS011;6819;50.886;4.332;2022-11-15T04:36:43;14.95;;;6.07;;
13493;SDS011;6819;50.886;4.332;2022-11-15T04:39:28;13.63;;;6.05;;
13493;SDS011;6819;50.886;4.332;2022-11-15T04:41:54;12.40;;;5.43;;
13493;SDS011;6819;50.886;4.332;2022-11-15T04:44:20;11.32;;;5.25;;
13493;SDS011;6819;50.886;4.332;2022-11-15T04:46:46;11.15;;;5.30;;
13493;SDS011;6819;50.886;4.332;2022-11-15T04:49:12;9.85;;;4.70;;
13493;SDS011;6819;50.886;4.332;2022-11-15T04:51:38;15.85;;;5.25;;
13493;SDS011;6819;50.886;4.332;2022-11-15T04:54:04;10.55;;;4.90;;
13493;SDS011;6819;50.886;4.332;2022-11-15T04:56:30;12.05;;;4.78;;
13493;SDS011;6819;50.886;4.332;2022-11-15T04:58:56;10.25;;;4.93;;
13493;SDS011;6819;50.886;4.332;2022-11-15T05:01:22;10.93;;;4.50;;
13493;SDS011;6819;50.886;4.332;2022-11-15T05:03:48;9.77;;;4.15;;
13493;SDS011;6819;50.886;4.332;2022-11-15T05:06:32;5.85;;;3.88;;
13493;SDS011;6819;50.886;4.332;2022-11-15T05:08:58;8.75;;;3.67;;
13493;SDS011;6819;50.886;4.332;2022-11-15T05:11:25;10.38;;;3.80;;
13493;SDS011;6819;50.886;4.332;2022-11-15T05:13:52;8.15;;;3.63;;
13493;SDS011;6819;50.886;4.332;2022-11-15T05:16:18;14.50;;;4.30;;
13493;SDS011;6819;50.886;4.332;2022-11-15T05:18:45;13.55;;;4.22;;
13493;SDS011;6819;50.886;4.332;2022-11-15T05:21:12;8.55;;;4.30;;
13493;SDS011;6819;50.886;4.332;2022-11-15T05:23:38;11.18;;;4.78;;
13493;SDS011;6819;50.886;4.332;2022-11-15T05:26:05;7.63;;;4.47;;
13493;SDS011;6819;50.886;4.332;2022-11-15T05:28:31;10.52;;;4.57;;
13493;SDS011;6819;50.886;4.332;2022-11-15T05:31:01;10.35;;;4.15;;
13493;SDS011;6819;50.886;4.332;2022-11-15T05:33:27;15.15;;;5.03;;
13493;SDS011;6819;50.886;4.332;2022-11-15T05:36:04;7.75;;;4.35;;
13493;SDS011;6819;50.886;4.332;2022-11-15T05:38:31;15.07;;;4.65;;
13493;SDS011;6819;50.886;4.332;2022-11-15T05:40:57;13.60;;;4.53;;
13493;SDS011;6819;50.886;4.332;2022-11-15T05:43:23;6.38;;;3.65;;
13493;SDS011;6819;50.886;4.332;2022-11-15T05:45:49;6.85;;;4.15;;
13493;SDS011;6819;50.886;4.332;2022-11-15T05:48:16;7.22;;;4.07;;
13493;SDS011;6819;50.886;4.332;2022-11-15T05:50:42;9.90;;;3.95;;
13493;SDS011;6819;50.886;4.332;2022-11-15T05:53:09;11.30;;;4.60;;
13493;SDS011;6819;50.886;4.332;2022-11-15T05:55:37;12.15;;;4.00;;
13493;SDS011;6819;50.886;4.332;2022-11-15T05:58:03;9.25;;;4.00;;
13493;SDS011;6819;50.886;4.332;2022-11-15T06:00:29;7.45;;;3.90;;
13493;SDS011;6819;50.886;4.332;2022-11-15T06:02:56;9.02;;;3.88;;
13493;SDS011;6819;50.886;4.332;2022-11-15T06:05:22;14.13;;;3.85;;
13493;SDS011;6819;50.886;4.332;2022-11-15T06:07:48;7.57;;;3.95;;
13493;SDS011;6819;50.886;4.332;2022-11-15T06:10:14;9.45;;;4.60;;
13493;SDS011;6819;50.886;4.332;2022-11-15T06:12:40;7.40;;;3.95;;
13493;SDS011;6819;50.886;4.332;2022-11-15T06:15:06;8.90;;;3.95;;
13493;SDS011;6819;50.886;4.332;2022-11-15T06:17:32;7.18;;;3.80;;
13493;SDS011;6819;50.886;4.332;2022-11-15T06:19:58;12.32;;;3.97;;
13493;SDS011;6819;50.886;4.332;2022-11-15T06:22:24;5.68;;;3.47;;
13493;SDS011;6819;50.886;4.332;2022-11-15T06:24:50;16.65;;;4.30;;
13493;SDS011;6819;50.886;4.332;2022-11-15T06:27:16;10.80;;;4.25;;
13493;SDS011;6819;50.886;4.332;2022-11-15T06:29:42;9.05;;;3.88;;
13493;SDS011;6819;50.886;4.332;2022-11-15T06:32:08;13.73;;;4.18;;
13493;SDS011;6819;50.886;4.332;2022-11-15T06:34:34;10.10;;;4.40;;
13493;SDS011;6819;50.886;4.332;2022-11-15T06:37:01;10.50;;;4.18;;
13493;SDS011;6819;50.886;4.332;2022-11-15T06:39:27;8.18;;;4.30;;
13493;SDS011;6819;50.886;4.332;2022-11-15T06:41:53;9.88;;;5.40;;
13493;SDS011;6819;50.886;4.332;2022-11-15T06:44:18;9.50;;;4.40;;
13493;SDS011;6819;50.886;4.332;2022-11-15T06:46:44;7.13;;;3.50;;
13493;SDS011;6819;50.886;4.332;2022-11-15T06:49:10;6.35;;;3.65;;
13493;SDS011;6819;50.886;4.332;2022-11-15T06:51:36;10.32;;;3.85;;
13493;SDS011;6819;50.886;4.332;2022-11-15T06:54:03;10.10;;;3.85;;
13493;SDS011;6819;50.886;4.332;2022-11-15T06:56:29;10.00;;;4.95;;
13493;SDS011;6819;50.886;4.332;2022-11-15T06:58:55;15.00;;;4.22;;
13493;SDS011;6819;50.886;4.332;2022-11-15T07:01:21;12.95;;;4.75;;
13493;SDS011;6819;50.886;4.332;2022-11-15T07:03:47;12.75;;;4.75;;
13493;SDS011;6819;50.886;4.332;2022-11-15T07:06:13;7.50;;;3.85;;
13493;SDS011;6819;50.886;4.332;2022-11-15T07:08:39;6.88;;;4.07;;
13493;SDS011;6819;50.886;4.332;2022-11-15T07:11:06;9.70;;;3.85;;
13493;SDS011;6819;50.886;4.332;2022-11-15T07:13:34;7.70;;;4.30;;
13493;SDS011;6819;50.886;4.332;2022-11-15T07:16:07;8.13;;;3.50;;
13493;SDS011;6819;50.886;4.332;2022-11-15T07:18:34;8.30;;;4.53;;
13493;SDS011;6819;50.886;4.332;2022-11-15T07:21:04;6.75;;;4.53;;
13493;SDS011;6819;50.886;4.332;2022-11-15T07:23:30;12.70;;;5.28;;
13493;SDS011;6819;50.886;4.332;2022-11-15T07:25:59;9.25;;;4.00;;
13493;SDS011;6819;50.886;4.332;2022-11-15T07:28:26;10.60;;;4.55;;
13493;SDS011;6819;50.886;4.332;2022-11-15T07:30:52;15.73;;;6.75;;
13493;SDS011;6819;50.886;4.332;2022-11-15T07:33:18;9.00;;;5.00;;
13493;SDS011;6819;50.886;4.332;2022-11-15T07:35:44;7.05;;;4.40;;
13493;SDS011;6819;50.886;4.332;2022-11-15T07:38:13;5.15;;;3.83;;
13493;SDS011;6819;50.886;4.332;2022-11-15T07:40:39;8.35;;;3.70;;
13493;SDS011;6819;50.886;4.332;2022-11-15T07:43:06;9.60;;;3.08;;
13493;SDS011;6819;50.886;4.332;2022-11-15T07:45:32;7.32;;;4.07;;
13493;SDS011;6819;50.886;4.332;2022-11-15T07:47:59;5.85;;;3.00;;
13493;SDS011;6819;50.886;4.332;2022-11-15T07:50:26;8.38;;;3.35;;
13493;SDS011;6819;50.886;4.332;2022-11-15T07:52:57;5.93;;;3.22;;
13493;SDS011;6819;50.886;4.332;2022-11-15T07:55:24;11.02;;;3.67;;
13493;SDS011;6819;50.886;4.332;2022-11-15T07:57:51;5.30;;;3.50;;
13493;SDS011;6819;50.886;4.332;2022-11-15T08:00:17;7.40;;;3.53;;
13493;SDS011;6819;50.886;4.332;2022-11-15T08:02:43;11.00;;;3.65;;
13493;SDS011;6819;50.886;4.332;2022-11-15T08:05:09;9.00;;;3.90;;
13493;SDS011;6819;50.886;4.332;2022-11-15T08:07:35;9.80;;;3.33;;
13493;SDS011;6819;50.886;4.332;2022-11-15T08:10:03;10.27;;;3.72;;
13493;SDS011;6819;50.886;4.332;2022-11-15T08:12:31;6.00;;;3.90;;
13493;SDS011;6819;50.886;4.332;2022-11-15T08:14:57;9.55;;;3.20;;
13493;SDS011;6819;50.886;4.332;2022-11-15T08:17:23;5.68;;;2.85;;
13493;SDS011;6819;50.886;4.332;2022-11-15T08:19:50;10.05;;;4.30;;
13493;SDS011;6819;50.886;4.332;2022-11-15T08:22:16;4.78;;;2.38;;
13493;SDS011;6819;50.886;4.332;2022-11-15T08:24:43;6.20;;;2.97;;
13493;SDS011;6819;50.886;4.332;2022-11-15T08:27:09;11.30;;;2.75;;
13493;SDS011;6819;50.886;4.332;2022-11-15T08:29:43;9.45;;;2.67;;
13493;SDS011;6819;50.886;4.332;2022-11-15T08:32:09;5.70;;;3.20;;
13493;SDS011;6819;50.886;4.332;2022-11-15T08:34:36;14.73;;;3.45;;
13493;SDS011;6819;50.886;4.332;2022-11-15T08:37:02;9.93;;;3.25;;
13493;SDS011;6819;50.886;4.332;2022-11-15T08:39:28;5.75;;;2.40;;
13493;SDS011;6819;50.886;4.332;2022-11-15T08:41:54;4.93;;;2.30;;
13493;SDS011;6819;50.886;4.332;2022-11-15T08:44:20;6.72;;;2.17;;
13493;SDS011;6819;50.886;4.332;2022-11-15T08:46:46;8.05;;;1.90;;
13493;SDS011;6819;50.886;4.332;2022-11-15T08:49:13;5.47;;;2.58;;
13493;SDS011;6819;50.886;4.332;2022-11-15T08:51:39;7.72;;;2.80;;
13493;SDS011;6819;50.886;4.332;2022-11-15T08:54:05;7.35;;;2.38;;
13493;SDS011;6819;50.886;4.332;2022-11-15T08:56:31;7.32;;;3.10;;
13493;SDS011;6819;50.886;4.332;2022-11-15T08:58:57;5.25;;;2.60;;
13493;SDS011;6819;50.886;4.332;2022-11-15T09:01:23;11.10;;;2.38;;
13493;SDS011;6819;50.886;4.332;2022-11-15T09:03:49;7.80;;;2.50;;
13493;SDS011;6819;50.886;4.332;2022-11-15T09:06:15;8.65;;;2.33;;
13493;SDS011;6819;50.886;4.332;2022-11-15T09:08:41;4.32;;;2.03;;
13493;SDS011;6819;50.886;4.332;2022-11-15T09:11:07;9.43;;;1.98;;
13493;SDS011;6819;50.886;4.332;2022-11-15T09:13:34;5.95;;;2.10;;
13493;SDS011;6819;50.886;4.332;2022-11-15T09:16:02;3.78;;;2.38;;
13493;SDS011;6819;50.886;4.332;2022-11-15T09:18:28;10.65;;;3.30;;
13493;SDS011;6819;50.886;4.332;2022-11-15T09:20:55;6.05;;;2.53;;
13493;SDS011;6819;50.886;4.332;2022-11-15T09:23:22;12.45;;;2.25;;
13493;SDS011;6819;50.886;4.332;2022-11-15T09:25:48;4.43;;;1.88;;
13493;SDS011;6819;50.886;4.332;2022-11-15T09:28:14;7.55;;;2.25;;
13493;SDS011;6819;50.886;4.332;2022-11-15T09:30:40;9.77;;;2.05;;
13493;SDS011;6819;50.886;4.332;2022-11-15T09:33:10;4.63;;;2.13;;
13493;SDS011;6819;50.886;4.332;2022-11-15T09:35:36;9.05;;;3.13;;
13493;SDS011;6819;50.886;4.332;2022-11-15T09:38:02;13.60;;;5.40;;
13493;SDS011;6819;50.886;4.332;2022-11-15T09:40:30;21.70;;;7.00;;
13493;SDS011;6819;50.886;4.332;2022-11-15T09:43:02;15.75;;;6.53;;
13493;SDS011;6819;50.886;4.332;2022-11-15T09:48:03;8.85;;;2.65;;
13493;SDS011;6819;50.886;4.332;2022-11-15T09:50:34;9.52;;;3.72;;
13493;SDS011;6819;50.886;4.332;2022-11-15T09:53:02;10.32;;;3.88;;
13493;SDS011;6819;50.886;4.332;2022-11-15T09:55:34;5.57;;;2.13;;
13493;SDS011;6819;50.886;4.332;2022-11-15T09:58:03;11.73;;;2.30;;
13493;SDS011;6819;50.886;4.332;2022-11-15T10:00:38;10.98;;;4.97;;
13493;SDS011;6819;50.886;4.332;2022-11-15T10:03:12;9.48;;;2.65;;
13493;SDS011;6819;50.886;4.332;2022-11-15T10:05:47;3.63;;;1.80;;
13493;SDS011;6819;50.886;4.332;2022-11-15T10:10:40;7.13;;;2.85;;
13493;SDS011;6819;50.886;4.332;2022-11-15T10:13:12;14.93;;;7.53;;
13493;SDS011;6819;50.886;4.332;2022-11-15T10:15:39;13.25;;;6.00;;
13493;SDS011;6819;50.886;4.332;2022-11-15T10:20:44;9.82;;;2.70;;
13493;SDS011;6819;50.886;4.332;2022-11-15T10:23:13;4.10;;;1.73;;
13493;SDS011;6819;50.886;4.332;2022-11-15T10:25:40;9.05;;;1.70;;
13493;SDS011;6819;50.886;4.332;2022-11-15T10:30:36;8.35;;;1.70;;
13493;SDS011;6819;50.886;4.332;2022-11-15T10:35:47;5.00;;;1.60;;
13493;SDS011;6819;50.886;4.332;2022-11-15T10:38:13;6.70;;;1.45;;
13493;SDS011;6819;50.886;4.332;2022-11-15T10:40:39;5.90;;;1.77;;
13493;SDS011;6819;50.886;4.332;2022-11-15T10:45:35;6.40;;;1.80;;
13493;SDS011;6819;50.886;4.332;2022-11-15T10:50:40;9.32;;;3.92;;
13493;SDS011;6819;50.886;4.332;2022-11-15T10:55:42;7.32;;;2.35;;
13493;SDS011;6819;50.886;4.332;2022-11-15T11:00:46;6.10;;;2.10;;
13493;SDS011;6819;50.886;4.332;2022-11-15T11:05:48;7.80;;;1.90;;
13493;SDS011;6819;50.886;4.332;2022-11-15T11:10:43;5.80;;;1.98;;
13493;SDS011;6819;50.886;4.332;2022-11-15T11:13:22;6.07;;;1.50;;
13493;SDS011;6819;50.886;4.332;2022-11-15T11:15:50;10.18;;;1.48;;
13493;SDS011;6819;50.886;4.332;2022-11-15T11:18:21;7.50;;;1.83;;
13493;SDS011;6819;50.886;4.332;2022-11-15T11:20:54;4.45;;;2.03;;
13493;SDS011;6819;50.886;4.332;2022-11-15T11:23:36;5.75;;;1.63;;
13493;SDS011;6819;50.886;4.332;2022-11-15T11:26:11;6.93;;;2.53;;
13493;SDS011;6819;50.886;4.332;2022-11-15T11:28:54;5.57;;;1.40;;
13493;SDS011;6819;50.886;4.332;2022-11-15T11:36:27;1.85;;;1.10;;
13493;SDS011;6819;50.886;4.332;2022-11-15T11:49:12;7.85;;;1.65;;
13493;SDS011;6819;50.886;4.332;2022-11-15T11:57:00;6.15;;;1.80;;
13493;SDS011;6819;50.886;4.332;2022-11-15T11:59:32;9.13;;;1.75;;
13493;SDS011;6819;50.886;4.332;2022-11-15T12:02:01;5.53;;;1.60;;
13493;SDS011;6819;50.886;4.332;2022-11-15T12:04:36;5.88;;;1.63;;
13493;SDS011;6819;50.886;4.332;2022-11-15T12:09:48;6.22;;;1.70;;
13493;SDS011;6819;50.886;4.332;2022-11-15T12:17:35;4.75;;;1.88;;
13493;SDS011;6819;50.886;4.332;2022-11-15T12:20:03;9.23;;;1.90;;
13493;SDS011;6819;50.886;4.332;2022-11-15T12:22:41;4.68;;;1.70;;
13493;SDS011;6819;50.886;4.332;2022-11-15T12:27:42;7.13;;;1.88;;
13493;SDS011;6819;50.886;4.332;2022-11-15T12:30:11;5.45;;;1.83;;
13493;SDS011;6819;50.886;4.332;2022-11-15T12:32:39;5.75;;;1.90;;
13493;SDS011;6819;50.886;4.332;2022-11-15T12:35:21;4.90;;;2.33;;
13493;SDS011;6819;50.886;4.332;2022-11-15T12:37:48;11.30;;;2.05;;
13493;SDS011;6819;50.886;4.332;2022-11-15T12:45:32;3.27;;;1.40;;
13493;SDS011;6819;50.886;4.332;2022-11-15T12:58:56;13.52;;;6.45;;
13493;SDS011;6819;50.886;4.332;2022-11-15T13:04:14;7.57;;;2.38;;
13493;SDS011;6819;50.886;4.332;2022-11-15T13:06:51;11.57;;;2.42;;
13493;SDS011;6819;50.886;4.332;2022-11-15T13:11:55;9.18;;;1.85;;
13493;SDS011;6819;50.886;4.332;2022-11-15T13:19:44;4.93;;;1.48;;
13493;SDS011;6819;50.886;4.332;2022-11-15T13:22:11;4.18;;;1.95;;
13493;SDS011;6819;50.886;4.332;2022-11-15T13:24:56;8.43;;;1.73;;
13493;SDS011;6819;50.886;4.332;2022-11-15T13:27:23;3.20;;;1.35;;
13493;SDS011;6819;50.886;4.332;2022-11-15T13:29:50;5.88;;;1.90;;
13493;SDS011;6819;50.886;4.332;2022-11-15T13:32:16;8.68;;;2.45;;
13493;SDS011;6819;50.886;4.332;2022-11-15T13:34:43;8.23;;;3.33;;
13493;SDS011;6819;50.886;4.332;2022-11-15T13:39:47;3.78;;;1.60;;
13493;SDS011;6819;50.886;4.332;2022-11-15T13:42:17;5.13;;;1.50;;
13493;SDS011;6819;50.886;4.332;2022-11-15T13:44:56;5.57;;;1.90;;
13493;SDS011;6819;50.886;4.332;2022-11-15T13:47:24;11.60;;;1.83;;
13493;SDS011;6819;50.886;4.332;2022-11-15T13:49:52;3.05;;;1.20;;
13493;SDS011;6819;50.886;4.332;2022-11-15T13:52:18;6.57;;;1.90;;
13493;SDS011;6819;50.886;4.332;2022-11-15T13:57:12;5.18;;;1.73;;
13493;SDS011;6819;50.886;4.332;2022-11-15T13:59:49;4.43;;;1.48;;
13493;SDS011;6819;50.886;4.332;2022-11-15T14:02:35;6.05;;;1.15;;
13493;SDS011;6819;50.886;4.332;2022-11-15T14:05:15;2.88;;;1.45;;
13493;SDS011;6819;50.886;4.332;2022-11-15T14:07:52;4.53;;;1.30;;
13493;SDS011;6819;50.886;4.332;2022-11-15T14:10:26;6.55;;;1.48;;
13493;SDS011;6819;50.886;4.332;2022-11-15T14:12:53;2.08;;;1.45;;
13493;SDS011;6819;50.886;4.332;2022-11-15T14:17:45;3.80;;;1.50;;
13493;SDS011;6819;50.886;4.332;2022-11-15T14:22:53;5.20;;;1.80;;
13493;SDS011;6819;50.886;4.332;2022-11-15T14:25:20;3.40;;;1.63;;
13493;SDS011;6819;50.886;4.332;2022-11-15T14:30:32;3.28;;;1.30;;
13493;SDS011;6819;50.886;4.332;2022-11-15T14:32:58;3.67;;;1.45;;
13493;SDS011;6819;50.886;4.332;2022-11-15T14:35:24;2.83;;;1.85;;
13493;SDS011;6819;50.886;4.332;2022-11-15T14:37:50;1.73;;;1.17;;
13493;SDS011;6819;50.886;4.332;2022-11-15T14:40:20;4.03;;;1.60;;
13493;SDS011;6819;50.886;4.332;2022-11-15T14:42:47;4.00;;;1.60;;
13493;SDS011;6819;50.886;4.332;2022-11-15T14:45:18;3.47;;;1.83;;
13493;SDS011;6819;50.886;4.332;2022-11-15T14:47:44;5.32;;;1.98;;
13493;SDS011;6819;50.886;4.332;2022-11-15T14:50:11;6.78;;;3.63;;
13493;SDS011;6819;50.886;4.332;2022-11-15T14:52:37;6.15;;;2.25;;
13493;SDS011;6819;50.886;4.332;2022-11-15T14:55:04;4.45;;;2.33;;
13493;SDS011;6819;50.886;4.332;2022-11-15T14:57:36;8.05;;;4.95;;
13493;SDS011;6819;50.886;4.332;2022-11-15T15:00:03;5.25;;;2.10;;
13493;SDS011;6819;50.886;4.332;2022-11-15T15:02:29;3.40;;;2.05;;
13493;SDS011;6819;50.886;4.332;2022-11-15T15:04:55;2.80;;;1.85;;
13493;SDS011;6819;50.886;4.332;2022-11-15T15:07:26;2.80;;;2.08;;
13493;SDS011;6819;50.886;4.332;2022-11-15T15:09:52;4.93;;;3.30;;
13493;SDS011;6819;50.886;4.332;2022-11-15T15:12:22;4.82;;;4.15;;
13493;SDS011;6819;50.886;4.332;2022-11-15T15:14:49;5.07;;;2.17;;
13493;SDS011;6819;50.886;4.332;2022-11-15T15:17:15;5.00;;;2.53;;
13493;SDS011;6819;50.886;4.332;2022-11-15T15:19:42;2.65;;;1.90;;
13493;SDS011;6819;50.886;4.332;2022-11-15T15:22:13;11.00;;;3.88;;
13493;SDS011;6819;50.886;4.332;2022-11-15T15:24:39;7.60;;;4.80;;
13493;SDS011;6819;50.886;4.332;2022-11-15T15:27:05;22.58;;;9.43;;
13493;SDS011;6819;50.886;4.332;2022-11-15T15:29:31;21.27;;;10.77;;
13493;SDS011;6819;50.886;4.332;2022-11-15T15:31:57;9.68;;;4.78;;
13493;SDS011;6819;50.886;4.332;2022-11-15T15:34:23;7.95;;;4.00;;
13493;SDS011;6819;50.886;4.332;2022-11-15T15:36:49;11.07;;;5.45;;
13493;SDS011;6819;50.886;4.332;2022-11-15T15:39:15;10.25;;;7.00;;
13493;SDS011;6819;50.886;4.332;2022-11-15T15:41:41;4.20;;;2.47;;
13493;SDS011;6819;50.886;4.332;2022-11-15T15:44:07;4.47;;;2.60;;
13493;SDS011;6819;50.886;4.332;2022-11-15T15:46:33;4.47;;;2.30;;
13493;SDS011;6819;50.886;4.332;2022-11-15T15:49:00;5.40;;;2.22;;
13493;SDS011;6819;50.886;4.332;2022-11-15T15:51:26;4.47;;;2.60;;
13493;SDS011;6819;50.886;4.332;2022-11-15T15:53:52;4.25;;;2.30;;
13493;SDS011;6819;50.886;4.332;2022-11-15T15:56:22;6.28;;;2.58;;
13493;SDS011;6819;50.886;4.332;2022-11-15T15:58:48;5.97;;;2.47;;
13493;SDS011;6819;50.886;4.332;2022-11-15T16:01:14;5.47;;;2.30;;
13493;SDS011;6819;50.886;4.332;2022-11-15T16:03:40;3.15;;;2.10;;
13493;SDS011;6819;50.886;4.332;2022-11-15T16:06:22;4.70;;;3.20;;
13493;SDS011;6819;50.886;4.332;2022-11-15T16:08:51;4.97;;;2.40;;
13493;SDS011;6819;50.886;4.332;2022-11-15T16:11:17;5.55;;;2.50;;
13493;SDS011;6819;50.886;4.332;2022-11-15T16:13:43;4.20;;;2.40;;
13493;SDS011;6819;50.886;4.332;2022-11-15T16:16:12;4.45;;;2.30;;
13493;SDS011;6819;50.886;4.332;2022-11-15T16:18:38;3.60;;;2.50;;
13493;SDS011;6819;50.886;4.332;2022-11-15T16:21:04;5.90;;;2.60;;
13493;SDS011;6819;50.886;4.332;2022-11-15T16:23:30;6.38;;;2.10;;
13493;SDS011;6819;50.886;4.332;2022-11-15T16:25:56;3.42;;;2.10;;
13493;SDS011;6819;50.886;4.332;2022-11-15T16:28:26;5.85;;;2.88;;
13493;SDS011;6819;50.886;4.332;2022-11-15T16:31:03;3.72;;;2.38;;
13493;SDS011;6819;50.886;4.332;2022-11-15T16:33:30;3.53;;;2.40;;
13493;SDS011;6819;50.886;4.332;2022-11-15T16:35:56;3.30;;;2.40;;
13493;SDS011;6819;50.886;4.332;2022-11-15T16:38:22;4.68;;;2.35;;
13493;SDS011;6819;50.886;4.332;2022-11-15T16:40:48;3.90;;;2.78;;
13493;SDS011;6819;50.886;4.332;2022-11-15T16:43:14;6.60;;;2.45;;
13493;SDS011;6819;50.886;4.332;2022-11-15T16:45:41;5.18;;;2.60;;
13493;SDS011;6819;50.886;4.332;2022-11-15T16:48:08;5.43;;;2.50;;
13493;SDS011;6819;50.886;4.332;2022-11-15T16:50:40;5.90;;;3.00;;
13493;SDS011;6819;50.886;4.332;2022-11-15T16:53:07;4.75;;;2.72;;
13493;SDS011;6819;50.886;4.332;2022-11-15T16:55:33;4.18;;;2.50;;
13493;SDS011;6819;50.886;4.332;2022-11-15T16:57:59;5.68;;;3.05;;
13493;SDS011;6819;50.886;4.332;2022-11-15T17:00:25;4.53;;;2.72;;